createdAt,value
2018-05-14T00:00:27.204Z,986.11
2018-05-14T00:02:20.051Z,986.09
2018-05-14T00:03:19.949Z,986.14
2018-05-14T00:05:12.781Z,986.14
2018-05-14T00:06:12.683Z,986.06
2018-05-14T00:08:05.566Z,986.11
2018-05-14T00:09:05.343Z,986.13
2018-05-14T00:10:58.209Z,986.12
2018-05-14T00:11:58.117Z,986.12
2018-05-14T00:13:51.462Z,986.11
2018-05-14T00:14:51.479Z,986.14
2018-05-14T00:16:44.114Z,986.09
2018-05-14T00:17:44.126Z,986.13
2018-05-14T00:19:37.112Z,986.12
2018-05-14T00:20:36.865Z,986.12
2018-05-14T00:22:30.639Z,986.13
2018-05-14T00:23:30.535Z,986.10
2018-05-14T00:25:23.388Z,986.09
2018-05-14T00:26:23.267Z,986.10
2018-05-14T00:28:16.136Z,986.11
2018-05-14T00:29:16.017Z,986.10
2018-05-14T00:31:09.399Z,986.14
2018-05-14T00:32:08.785Z,986.16
2018-05-14T00:34:01.637Z,986.22
2018-05-14T00:35:01.522Z,986.19
2018-05-14T00:36:54.266Z,986.19
2018-05-14T00:37:54.181Z,986.15
2018-05-14T00:39:47.049Z,986.16
2018-05-14T00:40:46.939Z,986.16
2018-05-14T00:42:39.662Z,986.16
2018-05-14T00:43:39.557Z,986.19
2018-05-14T00:45:32.449Z,986.19
2018-05-14T00:46:32.215Z,986.23
2018-05-14T00:48:24.952Z,986.19
2018-05-14T00:49:24.903Z,986.18
2018-05-14T00:51:17.745Z,986.17
2018-05-14T00:52:17.604Z,986.24
2018-05-14T00:54:10.362Z,986.24
2018-05-14T00:55:10.256Z,986.22
2018-05-14T00:57:03.108Z,986.25
2018-05-14T00:58:02.995Z,986.21
2018-05-14T00:59:55.768Z,986.22
2018-05-14T01:00:55.658Z,986.21
2018-05-14T01:02:48.530Z,986.22
2018-05-14T01:03:48.300Z,986.24
2018-05-14T01:05:41.565Z,986.20
2018-05-14T01:06:41.510Z,986.21
2018-05-14T01:08:34.203Z,986.21
2018-05-14T01:09:34.153Z,986.21
2018-05-14T01:11:26.975Z,986.16
2018-05-14T01:12:26.861Z,986.16
2018-05-14T01:14:20.358Z,986.14
2018-05-14T01:15:19.616Z,986.10
2018-05-14T01:17:12.380Z,986.13
2018-05-14T01:18:12.253Z,986.19
2018-05-14T01:20:05.108Z,986.17
2018-05-14T01:21:05.012Z,986.18
2018-05-14T01:22:57.856Z,986.15
2018-05-14T01:23:57.758Z,986.16
2018-05-14T01:25:50.596Z,986.15
2018-05-14T01:26:50.492Z,986.16
2018-05-14T01:28:43.256Z,986.14
2018-05-14T01:29:43.147Z,986.12
2018-05-14T01:31:36.005Z,986.14
2018-05-14T01:32:35.887Z,986.13
2018-05-14T01:34:28.742Z,986.16
2018-05-14T01:35:28.560Z,986.14
2018-05-14T01:37:21.417Z,986.17
2018-05-14T01:38:21.287Z,986.17
2018-05-14T01:40:14.032Z,986.23
2018-05-14T01:41:13.936Z,986.25
2018-05-14T01:43:06.807Z,986.27
2018-05-14T01:44:06.701Z,986.32
2018-05-14T01:45:59.962Z,986.27
2018-05-14T01:46:59.337Z,986.28
2018-05-14T01:48:52.088Z,986.31
2018-05-14T01:49:51.977Z,986.29
2018-05-14T01:51:44.824Z,986.31
2018-05-14T01:52:44.728Z,986.32
2018-05-14T01:54:37.505Z,986.32
2018-05-14T01:55:37.390Z,986.30
2018-05-14T01:57:30.122Z,986.28
2018-05-14T01:58:30.089Z,986.28
2018-05-14T02:00:22.923Z,986.24
2018-05-14T02:01:22.832Z,986.30
2018-05-14T02:03:15.759Z,986.30
2018-05-14T02:04:15.642Z,986.32
2018-05-14T02:06:08.387Z,986.30
2018-05-14T02:07:08.913Z,986.31
2018-05-14T02:09:01.137Z,986.29
2018-05-14T02:10:01.042Z,986.34
2018-05-14T02:11:53.890Z,986.34
2018-05-14T02:12:53.788Z,986.35
2018-05-14T02:14:46.547Z,986.38
2018-05-14T02:15:46.425Z,986.34
2018-05-14T02:17:39.293Z,986.34
2018-05-14T02:18:39.187Z,986.34
2018-05-14T02:20:32.967Z,986.40
2018-05-14T02:21:32.848Z,986.40
2018-05-14T02:23:25.588Z,986.39
2018-05-14T02:24:25.510Z,986.41
2018-05-14T02:26:18.365Z,986.40
2018-05-14T02:27:18.270Z,986.43
2018-05-14T02:29:11.857Z,986.39
2018-05-14T02:30:11.412Z,986.41
2018-05-14T02:32:04.161Z,986.40
2018-05-14T02:33:04.045Z,986.40
2018-05-14T02:34:56.868Z,986.42
2018-05-14T02:35:56.692Z,986.45
2018-05-14T02:37:49.577Z,986.49
2018-05-14T02:38:49.452Z,986.46
2018-05-14T02:40:42.301Z,986.45
2018-05-14T02:41:42.788Z,986.46
2018-05-14T02:43:35.053Z,986.45
2018-05-14T02:44:35.098Z,986.48
2018-05-14T02:46:27.788Z,986.49
2018-05-14T02:47:27.597Z,986.49
2018-05-14T02:49:20.465Z,986.45
2018-05-14T02:50:20.343Z,986.47
2018-05-14T02:52:13.233Z,986.48
2018-05-14T02:53:12.991Z,986.49
2018-05-14T02:55:05.957Z,986.50
2018-05-14T02:56:05.735Z,986.54
2018-05-14T02:57:58.601Z,986.54
2018-05-14T02:58:58.497Z,986.50
2018-05-14T03:00:51.351Z,986.54
2018-05-14T03:01:51.127Z,986.54
2018-05-14T03:03:43.915Z,986.53
2018-05-14T03:04:43.903Z,986.51
2018-05-14T03:06:36.662Z,986.52
2018-05-14T03:07:36.526Z,986.53
2018-05-14T03:09:29.375Z,986.48
2018-05-14T03:10:29.283Z,986.44
2018-05-14T03:12:22.115Z,986.51
2018-05-14T03:13:22.033Z,986.50
2018-05-14T03:15:14.911Z,986.51
2018-05-14T03:16:14.783Z,986.52
2018-05-14T03:18:07.569Z,986.51
2018-05-14T03:19:07.420Z,986.52
2018-05-14T03:21:00.788Z,986.55
2018-05-14T03:22:00.600Z,986.54
2018-05-14T03:23:53.360Z,986.55
2018-05-14T03:24:53.223Z,986.55
2018-05-14T03:26:45.975Z,986.54
2018-05-14T03:27:45.878Z,986.56
2018-05-14T03:29:38.657Z,986.59
2018-05-14T03:30:38.540Z,986.62
2018-05-14T03:32:31.530Z,986.61
2018-05-14T03:33:31.279Z,986.61
2018-05-14T03:35:24.133Z,986.64
2018-05-14T03:36:24.016Z,986.62
2018-05-14T03:38:16.782Z,986.62
2018-05-14T03:39:16.672Z,986.67
2018-05-14T03:41:09.446Z,986.67
2018-05-14T03:42:09.313Z,986.63
2018-05-14T03:44:02.061Z,986.68
2018-05-14T03:45:01.960Z,986.71
2018-05-14T03:46:54.826Z,986.66
2018-05-14T03:47:54.734Z,986.69
2018-05-14T03:49:47.452Z,986.69
2018-05-14T03:50:47.376Z,986.71
2018-05-14T03:52:40.115Z,986.70
2018-05-14T03:53:40.012Z,986.75
2018-05-14T03:55:32.861Z,986.74
2018-05-14T03:56:32.777Z,986.71
2018-05-14T03:58:25.650Z,986.73
2018-05-14T03:59:25.717Z,986.76
2018-05-14T04:01:18.430Z,986.78
2018-05-14T04:02:18.290Z,986.77
2018-05-14T04:04:11.098Z,986.79
2018-05-14T04:05:11.002Z,986.82
2018-05-14T04:07:04.794Z,986.80
2018-05-14T04:08:04.741Z,986.83
2018-05-14T04:09:57.520Z,986.78
2018-05-14T04:10:57.424Z,986.79
2018-05-14T04:12:50.276Z,986.83
2018-05-14T04:13:50.202Z,986.82
2018-05-14T04:15:43.017Z,986.84
2018-05-14T04:16:42.947Z,986.85
2018-05-14T04:18:35.694Z,986.85
2018-05-14T04:19:35.575Z,986.85
2018-05-14T04:21:28.334Z,986.85
2018-05-14T04:22:28.222Z,986.87
2018-05-14T04:24:21.040Z,986.88
2018-05-14T04:25:20.864Z,986.86
2018-05-14T04:27:13.753Z,986.90
2018-05-14T04:28:13.510Z,986.90
2018-05-14T04:30:06.265Z,986.93
2018-05-14T04:31:06.161Z,986.91
2018-05-14T04:32:58.901Z,986.97
2018-05-14T04:33:58.823Z,986.96
2018-05-14T04:35:51.568Z,987.00
2018-05-14T04:36:51.451Z,986.96
2018-05-14T04:38:44.239Z,986.97
2018-05-14T04:39:44.187Z,986.95
2018-05-14T04:41:36.983Z,986.99
2018-05-14T04:42:36.851Z,986.94
2018-05-14T04:44:29.625Z,987.00
2018-05-14T04:45:29.505Z,987.00
2018-05-14T04:47:22.338Z,987.00
2018-05-14T04:48:22.286Z,987.00
2018-05-14T04:50:15.013Z,987.00
2018-05-14T04:51:14.897Z,987.04
2018-05-14T04:53:07.754Z,987.04
2018-05-14T04:54:07.642Z,987.01
2018-05-14T04:56:00.763Z,986.99
2018-05-14T04:57:00.489Z,987.02
2018-05-14T04:58:53.262Z,987.04
2018-05-14T04:59:53.091Z,987.00
2018-05-14T05:01:45.934Z,987.01
2018-05-14T05:02:45.817Z,987.02
2018-05-14T05:04:38.642Z,987.04
2018-05-14T05:05:38.541Z,987.02
2018-05-14T05:07:31.329Z,987.10
2018-05-14T05:08:31.195Z,987.09
2018-05-14T05:10:23.948Z,987.09
2018-05-14T05:11:23.961Z,987.12
2018-05-14T05:13:16.704Z,987.09
2018-05-14T05:14:16.582Z,987.08
2018-05-14T05:16:09.971Z,987.07
2018-05-14T05:17:09.853Z,987.09
2018-05-14T05:19:02.589Z,987.07
2018-05-14T05:20:02.504Z,987.08
2018-05-14T05:21:55.254Z,987.06
2018-05-14T05:22:55.245Z,987.06
2018-05-14T05:24:47.879Z,987.11
2018-05-14T05:25:47.792Z,987.11
2018-05-14T05:27:41.574Z,987.14
2018-05-14T05:28:41.471Z,987.14
2018-05-14T05:30:34.210Z,987.13
2018-05-14T05:31:34.106Z,987.09
2018-05-14T05:33:26.857Z,987.09
2018-05-14T05:34:26.782Z,987.11
2018-05-14T05:36:19.496Z,987.09
2018-05-14T05:37:19.402Z,987.05
2018-05-14T05:39:12.154Z,987.05
2018-05-14T05:40:12.045Z,987.07
2018-05-14T05:42:04.809Z,987.11
2018-05-14T05:43:04.709Z,987.11
2018-05-14T05:44:57.455Z,987.09
2018-05-14T05:45:57.344Z,987.16
2018-05-14T05:47:50.089Z,987.13
2018-05-14T05:48:49.992Z,987.16
2018-05-14T05:50:42.870Z,987.20
2018-05-14T05:51:42.749Z,987.18
2018-05-14T05:53:35.499Z,987.18
2018-05-14T05:54:35.390Z,987.19
2018-05-14T05:56:28.270Z,987.24
2018-05-14T05:57:28.259Z,987.25
2018-05-14T05:59:21.005Z,987.27
2018-05-14T06:00:20.931Z,987.31
2018-05-14T06:02:13.741Z,987.33
2018-05-14T06:03:13.662Z,987.31
2018-05-14T06:05:06.499Z,987.33
2018-05-14T06:06:06.383Z,987.34
2018-05-14T06:07:59.129Z,987.34
2018-05-14T06:08:59.034Z,987.35
2018-05-14T06:10:51.897Z,987.36
2018-05-14T06:11:51.779Z,987.37
2018-05-14T06:13:44.520Z,987.36
2018-05-14T06:14:44.426Z,987.36
2018-05-14T06:16:38.213Z,987.37
2018-05-14T06:17:38.121Z,987.39
2018-05-14T06:19:30.942Z,987.41
2018-05-14T06:20:30.866Z,987.41
2018-05-14T06:22:23.709Z,987.48
2018-05-14T06:23:23.496Z,987.46
2018-05-14T06:25:16.356Z,987.44
2018-05-14T06:26:16.243Z,987.45
2018-05-14T06:28:08.992Z,987.46
2018-05-14T06:29:08.907Z,987.44
2018-05-14T06:31:01.767Z,987.44
2018-05-14T06:32:01.637Z,987.45
2018-05-14T06:33:54.385Z,987.46
2018-05-14T06:34:54.312Z,987.51
2018-05-14T06:36:47.153Z,987.51
2018-05-14T06:37:47.042Z,987.50
2018-05-14T06:39:39.893Z,987.51
2018-05-14T06:40:39.785Z,987.53
2018-05-14T06:42:32.713Z,987.58
2018-05-14T06:43:32.551Z,987.59
2018-05-14T06:45:25.391Z,987.62
2018-05-14T06:46:25.285Z,987.60
2018-05-14T06:48:18.093Z,987.60
2018-05-14T06:49:17.953Z,987.62
2018-05-14T06:51:10.799Z,987.59
2018-05-14T06:52:10.686Z,987.61
2018-05-14T06:54:03.546Z,987.60
2018-05-14T06:55:03.439Z,987.59
2018-05-14T06:56:56.280Z,987.59
2018-05-14T06:57:56.216Z,987.60
2018-05-14T06:59:48.939Z,987.60
2018-05-14T07:00:48.835Z,987.59
2018-05-14T07:02:41.689Z,987.64
2018-05-14T07:03:41.586Z,987.64
2018-05-14T07:05:34.450Z,987.64
2018-05-14T07:06:34.335Z,987.67
2018-05-14T07:08:27.168Z,987.73
2018-05-14T07:09:27.086Z,987.69
2018-05-14T07:11:19.948Z,987.62
2018-05-14T07:12:19.870Z,987.63
2018-05-14T07:14:12.671Z,987.64
2018-05-14T07:15:12.593Z,987.68
2018-05-14T07:17:05.456Z,987.70
2018-05-14T07:18:05.326Z,987.68
2018-05-14T07:19:58.112Z,987.69
2018-05-14T07:20:58.001Z,987.70
2018-05-14T07:22:50.836Z,987.72
2018-05-14T07:23:50.748Z,987.72
2018-05-14T07:25:43.604Z,987.70
2018-05-14T07:26:43.482Z,987.72
2018-05-14T07:28:36.316Z,987.70
2018-05-14T07:29:36.231Z,987.73
2018-05-14T07:31:29.087Z,987.67
2018-05-14T07:32:28.973Z,987.73
2018-05-14T07:34:21.825Z,987.68
2018-05-14T07:35:21.732Z,987.67
2018-05-14T07:37:14.667Z,987.72
2018-05-14T07:38:14.478Z,987.74
2018-05-14T07:40:07.315Z,987.73
2018-05-14T07:41:07.224Z,987.73
2018-05-14T07:43:00.168Z,987.77
2018-05-14T07:44:00.137Z,987.78
2018-05-14T07:45:52.826Z,987.81
2018-05-14T07:46:52.748Z,987.83
2018-05-14T07:48:45.577Z,987.84
2018-05-14T07:49:45.569Z,987.82
2018-05-14T07:51:38.361Z,987.86
2018-05-14T07:52:38.121Z,987.86
2018-05-14T07:54:31.093Z,987.86
2018-05-14T07:55:30.887Z,987.88
2018-05-14T07:57:23.761Z,987.91
2018-05-14T07:58:23.634Z,987.89
2018-05-14T08:00:16.659Z,987.94
2018-05-14T08:01:16.388Z,988.01
2018-05-14T08:03:09.223Z,987.93
2018-05-14T08:04:09.123Z,987.95
2018-05-14T08:06:01.980Z,987.92
2018-05-14T08:07:01.896Z,987.93
2018-05-14T08:08:54.711Z,987.91
2018-05-14T08:09:54.630Z,987.97
2018-05-14T08:11:48.058Z,987.96
2018-05-14T08:12:47.550Z,987.98
2018-05-14T08:14:40.252Z,988.02
2018-05-14T08:15:40.139Z,988.04
2018-05-14T08:17:32.966Z,988.02
2018-05-14T08:18:32.901Z,988.00
2018-05-14T08:20:25.736Z,988.04
2018-05-14T08:21:25.619Z,988.08
2018-05-14T08:23:18.470Z,988.11
2018-05-14T08:24:18.365Z,988.11
2018-05-14T08:26:11.318Z,988.10
2018-05-14T08:27:11.211Z,988.06
2018-05-14T08:29:03.976Z,988.04
2018-05-14T08:30:03.873Z,988.02
2018-05-14T08:31:56.735Z,988.04
2018-05-14T08:32:56.621Z,988.07
2018-05-14T08:34:52.425Z,988.03
2018-05-14T08:35:52.348Z,988.05
2018-05-14T08:37:45.193Z,988.09
2018-05-14T08:38:45.091Z,988.12
2018-05-14T08:40:37.950Z,988.11
2018-05-14T08:41:38.081Z,988.15
2018-05-14T08:43:30.729Z,988.14
2018-05-14T08:44:30.608Z,988.13
2018-05-14T08:46:23.434Z,988.12
2018-05-14T08:47:23.336Z,988.12
2018-05-14T08:49:16.172Z,988.18
2018-05-14T08:50:16.098Z,988.21
2018-05-14T08:52:08.984Z,988.16
2018-05-14T08:53:08.832Z,988.17
2018-05-14T08:55:01.666Z,988.15
2018-05-14T08:56:01.595Z,988.17
2018-05-14T08:57:54.463Z,988.20
2018-05-14T08:58:54.339Z,988.13
2018-05-14T09:00:47.227Z,988.13
2018-05-14T09:01:47.100Z,988.17
2018-05-14T09:03:39.950Z,988.19
2018-05-14T09:04:39.866Z,988.20
2018-05-14T09:06:32.700Z,988.23
2018-05-14T09:07:32.594Z,988.20
2018-05-14T09:09:25.498Z,988.18
2018-05-14T09:10:25.343Z,988.15
2018-05-14T09:12:18.171Z,988.15
2018-05-14T09:13:18.086Z,988.19
2018-05-14T09:15:10.938Z,988.27
2018-05-14T09:16:10.836Z,988.27
2018-05-14T09:18:03.689Z,988.26
2018-05-14T09:19:03.613Z,988.25
2018-05-14T09:20:56.436Z,988.24
2018-05-14T09:21:56.340Z,988.28
2018-05-14T09:23:49.597Z,988.26
2018-05-14T09:24:49.494Z,988.27
2018-05-14T09:26:42.345Z,988.26
2018-05-14T09:27:42.250Z,988.29
2018-05-14T09:29:35.102Z,988.26
2018-05-14T09:30:34.996Z,988.24
2018-05-14T09:32:28.351Z,988.20
2018-05-14T09:33:28.161Z,988.22
2018-05-14T09:35:21.027Z,988.25
2018-05-14T09:36:20.908Z,988.28
2018-05-14T09:38:13.756Z,988.31
2018-05-14T09:39:13.659Z,988.24
2018-05-14T09:41:06.514Z,988.29
2018-05-14T09:42:06.417Z,988.28
2018-05-14T09:43:59.798Z,988.25
2018-05-14T09:44:59.707Z,988.29
2018-05-14T09:46:52.662Z,988.33
2018-05-14T09:47:52.516Z,988.22
2018-05-14T09:49:45.371Z,988.29
2018-05-14T09:50:45.272Z,988.27
2018-05-14T09:52:38.120Z,988.28
2018-05-14T09:53:38.035Z,988.26
2018-05-14T09:55:30.873Z,988.25
2018-05-14T09:56:30.775Z,988.23
2018-05-14T09:58:23.675Z,988.25
2018-05-14T09:59:23.527Z,988.25
2018-05-14T10:01:16.372Z,988.31
2018-05-14T10:02:16.275Z,988.31
2018-05-14T10:04:09.122Z,988.31
2018-05-14T10:05:09.048Z,988.34
2018-05-14T10:07:01.898Z,988.33
2018-05-14T10:08:01.801Z,988.37
2018-05-14T10:09:54.633Z,988.32
2018-05-14T10:10:54.520Z,988.33
2018-05-14T10:12:47.510Z,988.29
2018-05-14T10:13:47.296Z,988.34
2018-05-14T10:15:40.147Z,988.35
2018-05-14T10:16:40.015Z,988.36
2018-05-14T10:18:33.778Z,988.34
2018-05-14T10:19:33.689Z,988.35
2018-05-14T10:21:26.521Z,988.35
2018-05-14T10:22:26.503Z,988.35
2018-05-14T10:24:19.295Z,988.33
2018-05-14T10:25:19.215Z,988.35
2018-05-14T10:27:12.033Z,988.30
2018-05-14T10:28:11.928Z,988.33
2018-05-14T10:30:04.829Z,988.32
2018-05-14T10:31:04.678Z,988.27
2018-05-14T10:32:57.546Z,988.24
2018-05-14T10:33:57.439Z,988.25
2018-05-14T10:35:50.285Z,988.25
2018-05-14T10:36:50.176Z,988.23
2018-05-14T10:38:43.033Z,988.32
2018-05-14T10:39:42.927Z,988.22
2018-05-14T10:41:35.794Z,988.23
2018-05-14T10:42:35.679Z,988.27
2018-05-14T10:44:28.534Z,988.25
2018-05-14T10:45:28.426Z,988.23
2018-05-14T10:47:21.288Z,988.21
2018-05-14T10:48:21.183Z,988.20
2018-05-14T10:50:14.051Z,988.21
2018-05-14T10:51:13.932Z,988.14
2018-05-14T10:53:06.806Z,988.11
2018-05-14T10:54:06.694Z,988.16
2018-05-14T10:55:59.540Z,988.15
2018-05-14T10:56:59.440Z,988.11
2018-05-14T10:58:52.329Z,988.10
2018-05-14T10:59:52.179Z,988.10
2018-05-14T11:01:45.052Z,988.13
2018-05-14T11:02:44.971Z,988.13
2018-05-14T11:04:38.832Z,988.09
2018-05-14T11:05:38.635Z,988.15
2018-05-14T11:07:31.517Z,988.08
2018-05-14T11:08:31.351Z,988.14
2018-05-14T11:10:24.197Z,988.20
2018-05-14T11:11:24.122Z,988.13
2018-05-14T11:13:16.937Z,988.16
2018-05-14T11:14:16.847Z,988.15
2018-05-14T11:16:09.745Z,988.19
2018-05-14T11:17:09.617Z,988.08
2018-05-14T11:19:02.437Z,988.14
2018-05-14T11:20:02.353Z,988.16
2018-05-14T11:21:55.716Z,988.15
2018-05-14T11:22:55.612Z,988.15
2018-05-14T11:24:48.865Z,988.18
2018-05-14T11:25:48.794Z,988.19
2018-05-14T11:27:41.616Z,988.21
2018-05-14T11:28:41.540Z,988.25
2018-05-14T11:30:34.362Z,988.17
2018-05-14T11:31:34.266Z,988.20
2018-05-14T11:33:27.150Z,988.25
2018-05-14T11:34:27.023Z,988.25
2018-05-14T11:36:19.889Z,988.22
2018-05-14T11:37:19.791Z,988.21
2018-05-14T11:39:12.638Z,988.28
2018-05-14T11:40:12.518Z,988.29
2018-05-14T11:42:05.349Z,988.36
2018-05-14T11:43:05.269Z,988.28
2018-05-14T11:44:58.111Z,988.27
2018-05-14T11:45:58.016Z,988.26
2018-05-14T11:47:50.869Z,988.25
2018-05-14T11:48:50.765Z,988.30
2018-05-14T11:50:44.125Z,988.27
2018-05-14T11:51:44.034Z,988.28
2018-05-14T11:53:38.311Z,988.17
2018-05-14T11:54:38.211Z,988.30
2018-05-14T11:56:31.053Z,988.21
2018-05-14T11:57:30.962Z,988.24
2018-05-14T11:59:23.848Z,988.22
2018-05-14T12:00:23.714Z,988.22
2018-05-14T12:02:16.582Z,988.16
2018-05-14T12:03:16.458Z,988.20
2018-05-14T12:05:09.335Z,988.23
2018-05-14T12:06:09.237Z,988.23
2018-05-14T12:08:02.077Z,988.24
2018-05-14T12:09:01.968Z,988.18
2018-05-14T12:10:54.843Z,988.23
2018-05-14T12:11:54.721Z,988.28
2018-05-14T12:13:49.098Z,988.18
2018-05-14T12:14:49.023Z,988.19
2018-05-14T12:16:41.853Z,988.18
2018-05-14T12:17:41.769Z,988.19
2018-05-14T12:19:34.591Z,988.30
2018-05-14T12:20:34.491Z,988.31
2018-05-14T12:22:27.329Z,988.26
2018-05-14T12:23:27.253Z,988.23
2018-05-14T12:25:20.206Z,988.22
2018-05-14T12:26:20.105Z,988.23
2018-05-14T12:28:12.923Z,988.33
2018-05-14T12:29:12.865Z,988.26
2018-05-14T12:31:05.731Z,988.36
2018-05-14T12:32:05.614Z,988.26
2018-05-14T12:33:58.425Z,988.23
2018-05-14T12:34:58.345Z,988.32
2018-05-14T12:36:51.187Z,988.32
2018-05-14T12:37:51.095Z,988.28
2018-05-14T12:39:43.942Z,988.25
2018-05-14T12:40:43.846Z,988.23
2018-05-14T12:42:36.703Z,988.27
2018-05-14T12:43:36.590Z,988.20
2018-05-14T12:45:29.545Z,988.24
2018-05-14T12:46:29.437Z,988.22
2018-05-14T12:48:22.882Z,988.23
2018-05-14T12:49:22.695Z,988.15
2018-05-14T12:51:15.661Z,988.20
2018-05-14T12:52:15.563Z,988.22
2018-05-14T12:54:08.387Z,988.22
2018-05-14T12:55:08.317Z,988.26
2018-05-14T12:57:01.161Z,988.13
2018-05-14T12:58:01.059Z,988.25
2018-05-14T12:59:53.885Z,988.15
2018-05-14T13:00:53.805Z,988.17
2018-05-14T13:02:46.670Z,988.13
2018-05-14T13:03:46.560Z,988.16
2018-05-14T13:05:39.411Z,988.18
2018-05-14T13:06:39.321Z,988.25
2018-05-14T13:08:32.164Z,988.18
2018-05-14T13:09:32.161Z,988.19
2018-05-14T13:11:24.925Z,988.10
2018-05-14T13:12:24.801Z,988.24
2018-05-14T13:14:17.797Z,988.20
2018-05-14T13:15:17.651Z,988.16
2018-05-14T13:17:10.521Z,988.22
2018-05-14T13:18:10.419Z,988.19
2018-05-14T13:20:03.257Z,988.20
2018-05-14T13:21:03.152Z,988.24
2018-05-14T13:22:56.026Z,988.27
2018-05-14T13:23:55.914Z,988.27
2018-05-14T13:25:49.849Z,988.20
2018-05-14T13:26:49.579Z,988.23
2018-05-14T13:28:42.442Z,988.23
2018-05-14T13:29:42.340Z,988.16
2018-05-14T13:31:35.156Z,988.23
2018-05-14T13:32:35.075Z,988.27
2018-05-14T13:34:27.924Z,988.34
2018-05-14T13:35:27.832Z,988.33
2018-05-14T13:37:20.766Z,988.32
2018-05-14T13:38:20.663Z,988.27
2018-05-14T13:40:13.533Z,988.25
2018-05-14T13:41:13.448Z,988.20
2018-05-14T13:43:06.284Z,988.17
2018-05-14T13:44:06.178Z,988.21
2018-05-14T13:45:59.066Z,988.17
2018-05-14T13:46:58.930Z,988.22
2018-05-14T13:48:51.907Z,988.18
2018-05-14T13:49:51.672Z,988.18
2018-05-14T13:51:45.448Z,988.16
2018-05-14T13:52:45.354Z,988.18
2018-05-14T13:54:38.293Z,988.16
2018-05-14T13:55:38.193Z,988.14
2018-05-14T13:57:31.566Z,988.18
2018-05-14T13:58:31.466Z,988.20
2018-05-14T14:00:24.331Z,988.22
2018-05-14T14:01:24.217Z,988.25
2018-05-14T14:03:17.059Z,988.24
2018-05-14T14:04:16.968Z,988.20
2018-05-14T14:06:09.809Z,988.25
2018-05-14T14:07:09.740Z,988.21
2018-05-14T14:09:02.548Z,988.20
2018-05-14T14:10:02.463Z,988.20
2018-05-14T14:11:55.307Z,988.15
2018-05-14T14:12:55.210Z,988.16
2018-05-14T14:14:48.045Z,988.15
2018-05-14T14:15:47.981Z,988.08
2018-05-14T14:17:40.834Z,988.21
2018-05-14T14:18:40.706Z,988.17
2018-05-14T14:20:33.568Z,988.21
2018-05-14T14:21:33.502Z,988.22
2018-05-14T14:23:26.547Z,988.16
2018-05-14T14:24:26.330Z,988.25
2018-05-14T14:26:19.170Z,988.33
2018-05-14T14:27:19.061Z,988.36
2018-05-14T14:29:11.903Z,988.29
2018-05-14T14:30:11.807Z,988.39
2018-05-14T14:32:04.631Z,988.46
2018-05-14T14:33:04.556Z,988.29
2018-05-14T14:34:57.433Z,988.34
2018-05-14T14:35:57.502Z,988.30
2018-05-14T14:37:50.170Z,988.34
2018-05-14T14:38:50.062Z,988.28
2018-05-14T14:40:42.918Z,988.32
2018-05-14T14:41:42.807Z,988.36
2018-05-14T14:43:35.668Z,988.27
2018-05-14T14:44:35.545Z,988.31
2018-05-14T14:46:28.413Z,988.36
2018-05-14T14:47:28.310Z,988.29
2018-05-14T14:49:21.167Z,988.29
2018-05-14T14:50:21.067Z,988.22
2018-05-14T14:52:13.907Z,988.26
2018-05-14T14:53:13.800Z,988.17
2018-05-14T14:55:07.103Z,988.20
2018-05-14T14:56:06.977Z,988.20
2018-05-14T14:57:59.803Z,988.25
2018-05-14T14:58:59.712Z,988.11
2018-05-14T15:00:52.659Z,988.08
2018-05-14T15:01:52.560Z,988.12
2018-05-14T15:03:45.436Z,988.08
2018-05-14T15:04:45.311Z,988.17
2018-05-14T15:06:38.175Z,988.07
2018-05-14T15:07:38.107Z,988.19
2018-05-14T15:09:30.918Z,988.22
2018-05-14T15:10:30.832Z,988.13
2018-05-14T15:12:23.680Z,988.26
2018-05-14T15:13:23.585Z,988.15
2018-05-14T15:15:16.431Z,988.13
2018-05-14T15:16:16.306Z,988.12
2018-05-14T15:18:09.263Z,988.16
2018-05-14T15:19:09.155Z,988.18
2018-05-14T15:21:02.019Z,988.16
2018-05-14T15:22:01.911Z,988.12
2018-05-14T15:23:54.751Z,988.09
2018-05-14T15:24:54.665Z,988.02
2018-05-14T15:26:47.533Z,988.11
2018-05-14T15:27:47.411Z,988.12
2018-05-14T15:29:40.324Z,988.11
2018-05-14T15:30:40.160Z,988.11
2018-05-14T15:32:33.031Z,988.10
2018-05-14T15:33:32.919Z,988.12
2018-05-14T15:35:25.755Z,988.09
2018-05-14T15:36:25.789Z,988.15
2018-05-14T15:38:18.541Z,988.26
2018-05-14T15:39:18.409Z,988.17
2018-05-14T15:41:11.288Z,988.12
2018-05-14T15:42:11.215Z,988.18
2018-05-14T15:44:04.064Z,988.13
2018-05-14T15:45:03.912Z,988.12
2018-05-14T15:46:56.739Z,988.23
2018-05-14T15:47:56.662Z,988.21
2018-05-14T15:49:49.543Z,988.21
2018-05-14T15:50:49.424Z,988.26
2018-05-14T15:52:42.238Z,988.28
2018-05-14T15:53:42.195Z,988.36
2018-05-14T15:55:35.054Z,988.48
2018-05-14T15:56:35.076Z,988.46
2018-05-14T15:58:27.780Z,988.51
2018-05-14T15:59:27.667Z,988.59
2018-05-14T16:01:20.704Z,988.54
2018-05-14T16:02:20.411Z,988.62
2018-05-14T16:04:13.339Z,988.59
2018-05-14T16:05:13.396Z,988.61
2018-05-14T16:07:06.053Z,988.53
2018-05-14T16:08:05.951Z,988.56
2018-05-14T16:09:59.284Z,988.53
2018-05-14T16:10:59.190Z,988.54
2018-05-14T16:12:52.718Z,988.58
2018-05-14T16:13:52.653Z,988.58
2018-05-14T16:15:45.492Z,988.63
2018-05-14T16:16:45.383Z,988.63
2018-05-14T16:18:38.753Z,988.60
2018-05-14T16:19:38.171Z,988.68
2018-05-14T16:21:31.009Z,988.67
2018-05-14T16:22:30.884Z,988.70
2018-05-14T16:24:23.710Z,988.70
2018-05-14T16:25:23.638Z,988.70
2018-05-14T16:27:16.990Z,988.71
2018-05-14T16:28:16.891Z,988.74
2018-05-14T16:30:10.244Z,988.81
2018-05-14T16:31:10.164Z,988.77
2018-05-14T16:33:03.013Z,988.70
2018-05-14T16:34:02.918Z,988.70
2018-05-14T16:35:55.791Z,988.73
2018-05-14T16:36:55.660Z,988.70
2018-05-14T16:38:48.610Z,988.72
2018-05-14T16:39:48.417Z,988.65
2018-05-14T16:41:41.766Z,988.70
2018-05-14T16:42:41.679Z,988.70
2018-05-14T16:44:35.034Z,988.71
2018-05-14T16:45:34.940Z,988.67
2018-05-14T16:47:27.777Z,988.64
2018-05-14T16:48:27.680Z,988.69
2018-05-14T16:50:20.539Z,988.72
2018-05-14T16:51:20.465Z,988.77
2018-05-14T16:53:13.477Z,988.81
2018-05-14T16:54:13.371Z,988.77
2018-05-14T16:56:06.181Z,988.78
2018-05-14T16:57:06.132Z,988.85
2018-05-14T16:58:59.417Z,988.83
2018-05-14T16:59:59.292Z,988.87
2018-05-14T17:01:52.130Z,988.85
2018-05-14T17:02:52.066Z,988.88
2018-05-14T17:04:45.005Z,988.90
2018-05-14T17:05:44.915Z,988.86
2018-05-14T17:07:37.749Z,988.90
2018-05-14T17:08:37.650Z,988.94
2018-05-14T17:10:30.543Z,988.95
2018-05-14T17:11:30.413Z,988.97
2018-05-14T17:13:23.251Z,989.05
2018-05-14T17:14:23.198Z,989.00
2018-05-14T17:16:16.134Z,989.05
2018-05-14T17:17:16.002Z,989.07
2018-05-14T17:19:08.840Z,989.09
2018-05-14T17:20:08.753Z,989.06
2018-05-14T17:22:01.613Z,989.13
2018-05-14T17:23:01.552Z,989.16
2018-05-14T17:24:54.333Z,989.19
2018-05-14T17:25:54.296Z,989.15
2018-05-14T17:27:47.126Z,989.17
2018-05-14T17:28:47.000Z,989.12
2018-05-14T17:30:40.886Z,989.16
2018-05-14T17:31:40.779Z,989.11
2018-05-14T17:33:33.626Z,989.20
2018-05-14T17:34:34.060Z,989.21
2018-05-14T17:36:26.360Z,989.19
2018-05-14T17:37:26.286Z,989.20
2018-05-14T17:39:19.154Z,989.17
2018-05-14T17:40:19.268Z,989.20
2018-05-14T17:42:11.869Z,989.18
2018-05-14T17:43:11.787Z,989.22
2018-05-14T17:45:04.605Z,989.20
2018-05-14T17:46:04.531Z,989.23
2018-05-14T17:47:57.367Z,989.22
2018-05-14T17:48:57.284Z,989.25
2018-05-14T17:50:50.107Z,989.22
2018-05-14T17:51:50.032Z,989.23
2018-05-14T17:53:43.369Z,989.19
2018-05-14T17:54:43.285Z,989.19
2018-05-14T17:56:36.172Z,989.19
2018-05-14T17:57:36.060Z,989.13